Aviation Digital Data Service (ADDS)

Output produced by METARs form (0021 UTC 21 January 2018)
found at http://aviationweather.gov/adds/metars/
 
KPIT 202325Z 2100/2206 24006KT P6SM FEW250 
     FM210500 23006KT P6SM BKN025 
     FM210700 23005KT 5SM BR OVC015 
     FM211000 22005KT 3SM -DZ OVC008 
     FM211500 21005KT P6SM VCSH OVC010